sensor_id;sensor_type;location;lat;lon;timestamp;P1;durP1;ratioP1;P2;durP2;ratioP2
72404;SDS011;60395;52.020;113.548;2022-09-09T00:09:47;30.00;;;8.25;;
72404;SDS011;60395;52.020;113.548;2022-09-09T00:13:08;24.27;;;10.73;;
72404;SDS011;60395;52.020;113.548;2022-09-09T00:16:22;31.08;;;9.48;;
72404;SDS011;60395;52.020;113.548;2022-09-09T00:19:37;26.38;;;9.43;;
72404;SDS011;60395;52.020;113.548;2022-09-09T00:22:47;28.15;;;9.50;;
72404;SDS011;60395;52.020;113.548;2022-09-09T00:26:09;23.65;;;8.77;;
72404;SDS011;60395;52.020;113.548;2022-09-09T00:29:21;22.88;;;8.88;;
72404;SDS011;60395;52.020;113.548;2022-09-09T00:32:32;29.05;;;9.57;;
72404;SDS011;60395;52.020;113.548;2022-09-09T00:35:38;25.33;;;8.75;;
72404;SDS011;60395;52.020;113.548;2022-09-09T00:38:47;44.42;;;9.45;;
72404;SDS011;60395;52.020;113.548;2022-09-09T00:45:15;26.13;;;9.63;;
72404;SDS011;60395;52.020;113.548;2022-09-09T00:52:51;37.05;;;10.15;;
72404;SDS011;60395;52.020;113.548;2022-09-09T00:59:18;28.05;;;12.38;;
72404;SDS011;60395;52.020;113.548;2022-09-09T01:02:39;23.08;;;10.30;;
72404;SDS011;60395;52.020;113.548;2022-09-09T01:12:48;38.30;;;10.55;;
72404;SDS011;60395;52.020;113.548;2022-09-09T01:15:55;37.53;;;11.00;;
72404;SDS011;60395;52.020;113.548;2022-09-09T01:19:04;35.42;;;12.05;;
72404;SDS011;60395;52.020;113.548;2022-09-09T01:22:26;40.40;;;11.23;;
72404;SDS011;60395;52.020;113.548;2022-09-09T01:28:58;29.42;;;11.38;;
72404;SDS011;60395;52.020;113.548;2022-09-09T01:35:53;34.10;;;10.63;;
72404;SDS011;60395;52.020;113.548;2022-09-09T01:39:09;31.38;;;10.68;;
72404;SDS011;60395;52.020;113.548;2022-09-09T01:45:19;22.83;;;10.05;;
72404;SDS011;60395;52.020;113.548;2022-09-09T01:51:39;22.38;;;10.40;;
72404;SDS011;60395;52.020;113.548;2022-09-09T01:54:47;21.20;;;10.07;;
72404;SDS011;60395;52.020;113.548;2022-09-09T02:08:03;20.98;;;10.43;;
72404;SDS011;60395;52.020;113.548;2022-09-09T02:11:21;21.60;;;10.30;;
72404;SDS011;60395;52.020;113.548;2022-09-09T02:14:44;26.02;;;10.77;;
72404;SDS011;60395;52.020;113.548;2022-09-09T02:17:53;23.42;;;10.70;;
72404;SDS011;60395;52.020;113.548;2022-09-09T02:21:01;21.67;;;10.70;;
72404;SDS011;60395;52.020;113.548;2022-09-09T02:24:06;29.58;;;10.02;;
72404;SDS011;60395;52.020;113.548;2022-09-09T02:27:19;34.97;;;10.85;;
72404;SDS011;60395;52.020;113.548;2022-09-09T02:30:25;27.90;;;11.18;;
72404;SDS011;60395;52.020;113.548;2022-09-09T02:33:37;30.08;;;10.85;;
72404;SDS011;60395;52.020;113.548;2022-09-09T02:36:44;22.88;;;10.93;;
72404;SDS011;60395;52.020;113.548;2022-09-09T02:39:49;30.10;;;10.25;;
72404;SDS011;60395;52.020;113.548;2022-09-09T02:42:55;22.75;;;9.32;;
72404;SDS011;60395;52.020;113.548;2022-09-09T02:55:58;28.45;;;9.73;;
72404;SDS011;60395;52.020;113.548;2022-09-09T02:59:16;24.92;;;12.13;;
72404;SDS011;60395;52.020;113.548;2022-09-09T03:02:23;24.95;;;10.00;;
72404;SDS011;60395;52.020;113.548;2022-09-09T03:05:36;25.02;;;8.88;;
72404;SDS011;60395;52.020;113.548;2022-09-09T03:08:41;30.52;;;9.55;;
72404;SDS011;60395;52.020;113.548;2022-09-09T03:11:56;21.98;;;8.05;;
72404;SDS011;60395;52.020;113.548;2022-09-09T03:15:00;30.55;;;12.38;;
72404;SDS011;60395;52.020;113.548;2022-09-09T03:18:06;28.70;;;8.68;;
72404;SDS011;60395;52.020;113.548;2022-09-09T03:24:15;20.42;;;8.75;;
72404;SDS011;60395;52.020;113.548;2022-09-09T03:27:18;31.20;;;9.20;;
72404;SDS011;60395;52.020;113.548;2022-09-09T03:30:22;25.10;;;8.27;;
72404;SDS011;60395;52.020;113.548;2022-09-09T03:33:28;27.10;;;8.48;;
72404;SDS011;60395;52.020;113.548;2022-09-09T03:36:32;24.27;;;8.55;;
72404;SDS011;60395;52.020;113.548;2022-09-09T03:39:36;24.35;;;7.72;;
72404;SDS011;60395;52.020;113.548;2022-09-09T03:42:41;26.02;;;8.65;;
72404;SDS011;60395;52.020;113.548;2022-09-09T03:45:47;20.27;;;8.10;;
72404;SDS011;60395;52.020;113.548;2022-09-09T03:48:51;24.08;;;7.57;;
72404;SDS011;60395;52.020;113.548;2022-09-09T03:51:55;23.58;;;8.13;;
72404;SDS011;60395;52.020;113.548;2022-09-09T03:54:59;24.90;;;8.25;;
72404;SDS011;60395;52.020;113.548;2022-09-09T03:58:03;24.08;;;8.40;;
72404;SDS011;60395;52.020;113.548;2022-09-09T04:01:14;23.27;;;8.07;;
72404;SDS011;60395;52.020;113.548;2022-09-09T04:04:20;20.65;;;8.45;;
72404;SDS011;60395;52.020;113.548;2022-09-09T04:07:24;19.63;;;8.38;;
72404;SDS011;60395;52.020;113.548;2022-09-09T04:10:30;24.95;;;8.48;;
72404;SDS011;60395;52.020;113.548;2022-09-09T04:13:34;20.75;;;8.05;;
72404;SDS011;60395;52.020;113.548;2022-09-09T04:16:44;17.48;;;8.55;;
72404;SDS011;60395;52.020;113.548;2022-09-09T04:19:49;20.27;;;8.80;;
72404;SDS011;60395;52.020;113.548;2022-09-09T04:22:53;21.47;;;8.20;;
72404;SDS011;60395;52.020;113.548;2022-09-09T04:25:57;21.27;;;7.78;;
72404;SDS011;60395;52.020;113.548;2022-09-09T04:29:03;15.70;;;7.30;;
72404;SDS011;60395;52.020;113.548;2022-09-09T04:32:10;14.13;;;7.30;;
72404;SDS011;60395;52.020;113.548;2022-09-09T04:35:14;16.42;;;7.03;;
72404;SDS011;60395;52.020;113.548;2022-09-09T04:38:19;15.40;;;6.63;;
72404;SDS011;60395;52.020;113.548;2022-09-09T04:41:25;14.18;;;9.05;;
72404;SDS011;60395;52.020;113.548;2022-09-09T04:44:29;11.20;;;5.68;;
72404;SDS011;60395;52.020;113.548;2022-09-09T04:47:33;11.82;;;6.25;;
72404;SDS011;60395;52.020;113.548;2022-09-09T04:50:41;21.95;;;6.47;;
72404;SDS011;60395;52.020;113.548;2022-09-09T04:53:46;7.80;;;5.70;;
72404;SDS011;60395;52.020;113.548;2022-09-09T04:56:54;10.10;;;5.47;;
72404;SDS011;60395;52.020;113.548;2022-09-09T04:59:58;11.55;;;6.38;;
72404;SDS011;60395;52.020;113.548;2022-09-09T05:03:07;9.32;;;6.18;;
72404;SDS011;60395;52.020;113.548;2022-09-09T05:06:12;9.82;;;5.30;;
72404;SDS011;60395;52.020;113.548;2022-09-09T05:09:28;10.95;;;5.20;;
72404;SDS011;60395;52.020;113.548;2022-09-09T05:12:31;9.95;;;5.18;;
72404;SDS011;60395;52.020;113.548;2022-09-09T05:15:35;11.63;;;5.60;;
72404;SDS011;60395;52.020;113.548;2022-09-09T05:18:38;10.57;;;5.43;;
72404;SDS011;60395;52.020;113.548;2022-09-09T05:24:47;11.02;;;5.65;;
72404;SDS011;60395;52.020;113.548;2022-09-09T05:27:53;10.02;;;5.43;;
72404;SDS011;60395;52.020;113.548;2022-09-09T05:30:57;9.15;;;4.80;;
72404;SDS011;60395;52.020;113.548;2022-09-09T05:34:04;12.90;;;6.03;;
72404;SDS011;60395;52.020;113.548;2022-09-09T05:37:07;10.30;;;5.35;;
72404;SDS011;60395;52.020;113.548;2022-09-09T05:43:14;8.52;;;4.90;;
72404;SDS011;60395;52.020;113.548;2022-09-09T05:46:19;11.00;;;5.47;;
72404;SDS011;60395;52.020;113.548;2022-09-09T05:49:25;7.78;;;5.57;;
72404;SDS011;60395;52.020;113.548;2022-09-09T05:52:29;12.03;;;5.60;;
72404;SDS011;60395;52.020;113.548;2022-09-09T05:55:33;12.52;;;5.30;;
72404;SDS011;60395;52.020;113.548;2022-09-09T06:01:43;8.93;;;5.15;;
72404;SDS011;60395;52.020;113.548;2022-09-09T06:04:54;17.25;;;5.40;;
72404;SDS011;60395;52.020;113.548;2022-09-09T06:08:02;14.43;;;5.35;;
72404;SDS011;60395;52.020;113.548;2022-09-09T06:11:10;20.05;;;5.60;;
72404;SDS011;60395;52.020;113.548;2022-09-09T06:14:16;10.02;;;4.80;;
72404;SDS011;60395;52.020;113.548;2022-09-09T06:17:25;12.52;;;5.25;;
72404;SDS011;60395;52.020;113.548;2022-09-09T06:20:28;8.77;;;5.55;;
72404;SDS011;60395;52.020;113.548;2022-09-09T06:26:39;10.75;;;5.10;;
72404;SDS011;60395;52.020;113.548;2022-09-09T06:29:46;14.43;;;5.45;;
72404;SDS011;60395;52.020;113.548;2022-09-09T06:32:51;6.88;;;5.10;;
72404;SDS011;60395;52.020;113.548;2022-09-09T06:35:54;10.32;;;4.65;;
72404;SDS011;60395;52.020;113.548;2022-09-09T06:38:59;15.43;;;5.32;;
72404;SDS011;60395;52.020;113.548;2022-09-09T06:42:05;8.90;;;5.70;;
72404;SDS011;60395;52.020;113.548;2022-09-09T06:45:21;7.10;;;5.00;;
72404;SDS011;60395;52.020;113.548;2022-09-09T06:48:29;13.38;;;5.60;;
72404;SDS011;60395;52.020;113.548;2022-09-09T06:51:34;8.73;;;4.25;;
72404;SDS011;60395;52.020;113.548;2022-09-09T06:54:39;7.53;;;4.72;;
72404;SDS011;60395;52.020;113.548;2022-09-09T06:57:43;11.88;;;5.80;;
72404;SDS011;60395;52.020;113.548;2022-09-09T07:00:51;10.55;;;4.75;;
72404;SDS011;60395;52.020;113.548;2022-09-09T07:03:54;20.33;;;5.30;;
72404;SDS011;60395;52.020;113.548;2022-09-09T07:07:01;8.52;;;4.75;;
72404;SDS011;60395;52.020;113.548;2022-09-09T07:10:05;15.73;;;5.40;;
72404;SDS011;60395;52.020;113.548;2022-09-09T07:13:11;7.00;;;4.20;;
72404;SDS011;60395;52.020;113.548;2022-09-09T07:16:16;6.72;;;4.10;;
72404;SDS011;60395;52.020;113.548;2022-09-09T07:19:20;9.52;;;4.28;;
72404;SDS011;60395;52.020;113.548;2022-09-09T07:22:27;9.48;;;4.60;;
72404;SDS011;60395;52.020;113.548;2022-09-09T07:25:31;10.45;;;4.30;;
72404;SDS011;60395;52.020;113.548;2022-09-09T07:28:34;6.13;;;4.07;;
72404;SDS011;60395;52.020;113.548;2022-09-09T07:31:38;9.17;;;4.10;;
72404;SDS011;60395;52.020;113.548;2022-09-09T07:34:46;8.30;;;4.13;;
72404;SDS011;60395;52.020;113.548;2022-09-09T07:37:49;8.00;;;4.20;;
72404;SDS011;60395;52.020;113.548;2022-09-09T07:40:54;7.63;;;4.13;;
72404;SDS011;60395;52.020;113.548;2022-09-09T07:44:10;7.47;;;4.03;;
72404;SDS011;60395;52.020;113.548;2022-09-09T07:47:16;8.40;;;4.15;;
72404;SDS011;60395;52.020;113.548;2022-09-09T07:50:21;6.75;;;3.90;;
72404;SDS011;60395;52.020;113.548;2022-09-09T07:53:24;6.22;;;4.32;;
72404;SDS011;60395;52.020;113.548;2022-09-09T07:56:29;5.50;;;3.95;;
72404;SDS011;60395;52.020;113.548;2022-09-09T07:59:35;7.75;;;4.10;;
72404;SDS011;60395;52.020;113.548;2022-09-09T08:02:38;7.93;;;4.20;;
72404;SDS011;60395;52.020;113.548;2022-09-09T08:05:44;11.48;;;3.95;;
72404;SDS011;60395;52.020;113.548;2022-09-09T08:08:49;10.20;;;4.27;;
72404;SDS011;60395;52.020;113.548;2022-09-09T08:11:55;8.90;;;4.47;;
72404;SDS011;60395;52.020;113.548;2022-09-09T08:14:59;11.10;;;4.30;;
72404;SDS011;60395;52.020;113.548;2022-09-09T08:18:06;12.25;;;4.28;;
72404;SDS011;60395;52.020;113.548;2022-09-09T08:21:11;10.18;;;4.57;;
72404;SDS011;60395;52.020;113.548;2022-09-09T08:24:15;8.63;;;3.67;;
72404;SDS011;60395;52.020;113.548;2022-09-09T08:27:22;8.02;;;4.10;;
72404;SDS011;60395;52.020;113.548;2022-09-09T08:30:27;9.00;;;4.03;;
72404;SDS011;60395;52.020;113.548;2022-09-09T08:33:30;15.32;;;4.97;;
72404;SDS011;60395;52.020;113.548;2022-09-09T08:36:36;13.65;;;4.85;;
72404;SDS011;60395;52.020;113.548;2022-09-09T08:39:43;13.10;;;4.22;;
72404;SDS011;60395;52.020;113.548;2022-09-09T08:42:48;10.77;;;4.30;;
72404;SDS011;60395;52.020;113.548;2022-09-09T08:45:58;8.43;;;4.75;;
72404;SDS011;60395;52.020;113.548;2022-09-09T08:56:26;11.98;;;6.93;;
72404;SDS011;60395;52.020;113.548;2022-09-09T08:59:32;7.13;;;4.35;;
72404;SDS011;60395;52.020;113.548;2022-09-09T09:05:59;6.05;;;3.65;;
72404;SDS011;60395;52.020;113.548;2022-09-09T09:09:08;10.63;;;3.95;;
72404;SDS011;60395;52.020;113.548;2022-09-09T09:12:22;12.95;;;4.93;;
72404;SDS011;60395;52.020;113.548;2022-09-09T09:15:36;8.80;;;5.35;;
72404;SDS011;60395;52.020;113.548;2022-09-09T09:18:42;8.43;;;4.50;;
72404;SDS011;60395;52.020;113.548;2022-09-09T09:25:25;14.10;;;4.50;;
72404;SDS011;60395;52.020;113.548;2022-09-09T09:28:34;16.15;;;4.70;;
72404;SDS011;60395;52.020;113.548;2022-09-09T09:31:47;10.02;;;4.05;;
72404;SDS011;60395;52.020;113.548;2022-09-09T09:34:56;11.38;;;4.40;;
72404;SDS011;60395;52.020;113.548;2022-09-09T09:38:00;10.85;;;4.43;;
72404;SDS011;60395;52.020;113.548;2022-09-09T09:41:34;9.95;;;4.60;;
72404;SDS011;60395;52.020;113.548;2022-09-09T09:44:41;14.40;;;4.88;;
72404;SDS011;60395;52.020;113.548;2022-09-09T09:48:05;16.38;;;4.85;;
72404;SDS011;60395;52.020;113.548;2022-09-09T09:51:22;12.13;;;4.55;;
72404;SDS011;60395;52.020;113.548;2022-09-09T09:54:38;7.97;;;4.22;;
72404;SDS011;60395;52.020;113.548;2022-09-09T09:57:44;14.30;;;4.43;;
72404;SDS011;60395;52.020;113.548;2022-09-09T10:00:48;9.60;;;4.30;;
72404;SDS011;60395;52.020;113.548;2022-09-09T10:04:14;13.77;;;4.70;;
72404;SDS011;60395;52.020;113.548;2022-09-09T10:07:19;10.18;;;4.45;;
72404;SDS011;60395;52.020;113.548;2022-09-09T10:10:26;20.83;;;5.50;;
72404;SDS011;60395;52.020;113.548;2022-09-09T10:20:29;11.40;;;5.47;;
72404;SDS011;60395;52.020;113.548;2022-09-09T10:27:04;11.07;;;4.88;;
72404;SDS011;60395;52.020;113.548;2022-09-09T10:30:19;9.45;;;5.35;;
72404;SDS011;60395;52.020;113.548;2022-09-09T10:33:33;12.05;;;4.38;;
72404;SDS011;60395;52.020;113.548;2022-09-09T10:39:49;9.73;;;4.57;;
72404;SDS011;60395;52.020;113.548;2022-09-09T10:46:34;8.05;;;4.28;;
72404;SDS011;60395;52.020;113.548;2022-09-09T10:56:39;16.58;;;8.07;;
72404;SDS011;60395;52.020;113.548;2022-09-09T10:59:50;17.63;;;7.50;;
72404;SDS011;60395;52.020;113.548;2022-09-09T11:02:58;14.90;;;8.27;;
72404;SDS011;60395;52.020;113.548;2022-09-09T11:06:05;12.25;;;6.00;;
72404;SDS011;60395;52.020;113.548;2022-09-09T11:09:15;10.00;;;5.20;;
72404;SDS011;60395;52.020;113.548;2022-09-09T11:12:22;8.07;;;4.50;;
72404;SDS011;60395;52.020;113.548;2022-09-09T11:15:31;11.40;;;5.10;;
72404;SDS011;60395;52.020;113.548;2022-09-09T11:18:39;10.82;;;5.20;;
72404;SDS011;60395;52.020;113.548;2022-09-09T11:21:45;13.75;;;5.22;;
72404;SDS011;60395;52.020;113.548;2022-09-09T11:24:56;9.27;;;5.13;;
72404;SDS011;60395;52.020;113.548;2022-09-09T11:31:35;9.43;;;4.70;;
72404;SDS011;60395;52.020;113.548;2022-09-09T11:41:32;7.72;;;5.40;;
72404;SDS011;60395;52.020;113.548;2022-09-09T11:44:39;13.65;;;6.50;;
72404;SDS011;60395;52.020;113.548;2022-09-09T11:51:28;14.30;;;7.93;;
72404;SDS011;60395;52.020;113.548;2022-09-09T11:57:32;11.90;;;7.28;;
72404;SDS011;60395;52.020;113.548;2022-09-09T12:00:43;17.35;;;8.10;;
72404;SDS011;60395;52.020;113.548;2022-09-09T12:03:48;15.65;;;7.38;;
72404;SDS011;60395;52.020;113.548;2022-09-09T12:06:59;12.45;;;5.78;;
72404;SDS011;60395;52.020;113.548;2022-09-09T12:13:21;16.10;;;5.47;;
72404;SDS011;60395;52.020;113.548;2022-09-09T12:16:33;19.60;;;5.68;;
72404;SDS011;60395;52.020;113.548;2022-09-09T12:19:39;22.02;;;6.43;;
72404;SDS011;60395;52.020;113.548;2022-09-09T12:26:16;24.25;;;6.22;;
72404;SDS011;60395;52.020;113.548;2022-09-09T12:29:38;26.55;;;6.47;;
72404;SDS011;60395;52.020;113.548;2022-09-09T12:33:00;29.60;;;7.43;;
72404;SDS011;60395;52.020;113.548;2022-09-09T12:36:08;23.15;;;6.43;;
72404;SDS011;60395;52.020;113.548;2022-09-09T12:40:03;18.02;;;6.82;;
72404;SDS011;60395;52.020;113.548;2022-09-09T12:42:48;17.90;;;6.47;;
72404;SDS011;60395;52.020;113.548;2022-09-09T12:46:00;33.83;;;6.97;;
72404;SDS011;60395;52.020;113.548;2022-09-09T12:49:24;31.25;;;6.70;;
72404;SDS011;60395;52.020;113.548;2022-09-09T12:52:34;20.38;;;6.47;;
72404;SDS011;60395;52.020;113.548;2022-09-09T12:55:55;19.05;;;6.88;;
72404;SDS011;60395;52.020;113.548;2022-09-09T12:59:00;19.30;;;7.35;;
72404;SDS011;60395;52.020;113.548;2022-09-09T13:02:11;14.77;;;6.43;;
72404;SDS011;60395;52.020;113.548;2022-09-09T13:05:38;19.60;;;6.82;;
72404;SDS011;60395;52.020;113.548;2022-09-09T13:08:44;22.30;;;8.20;;
72404;SDS011;60395;52.020;113.548;2022-09-09T13:11:51;22.00;;;7.15;;
72404;SDS011;60395;52.020;113.548;2022-09-09T13:14:58;26.45;;;7.63;;
72404;SDS011;60395;52.020;113.548;2022-09-09T13:18:02;24.08;;;7.70;;
72404;SDS011;60395;52.020;113.548;2022-09-09T13:21:13;17.40;;;6.25;;
72404;SDS011;60395;52.020;113.548;2022-09-09T13:24:23;15.00;;;6.10;;
72404;SDS011;60395;52.020;113.548;2022-09-09T13:27:38;18.02;;;5.75;;
72404;SDS011;60395;52.020;113.548;2022-09-09T13:30:43;17.77;;;5.75;;
72404;SDS011;60395;52.020;113.548;2022-09-09T13:34:13;18.73;;;6.22;;
72404;SDS011;60395;52.020;113.548;2022-09-09T13:40:37;14.05;;;6.40;;
72404;SDS011;60395;52.020;113.548;2022-09-09T13:43:44;12.25;;;6.05;;
72404;SDS011;60395;52.020;113.548;2022-09-09T13:47:04;17.95;;;7.10;;
72404;SDS011;60395;52.020;113.548;2022-09-09T13:53:29;23.15;;;6.53;;
72404;SDS011;60395;52.020;113.548;2022-09-09T13:56:33;18.45;;;6.72;;
72404;SDS011;60395;52.020;113.548;2022-09-09T13:59:37;18.77;;;6.25;;
72404;SDS011;60395;52.020;113.548;2022-09-09T14:03:00;17.27;;;6.82;;
72404;SDS011;60395;52.020;113.548;2022-09-09T14:06:07;27.33;;;7.38;;
72404;SDS011;60395;52.020;113.548;2022-09-09T14:09:11;15.18;;;7.00;;
72404;SDS011;60395;52.020;113.548;2022-09-09T14:12:18;13.57;;;5.85;;
72404;SDS011;60395;52.020;113.548;2022-09-09T14:15:21;17.95;;;6.63;;
72404;SDS011;60395;52.020;113.548;2022-09-09T14:18:24;21.13;;;6.95;;
72404;SDS011;60395;52.020;113.548;2022-09-09T14:21:27;23.98;;;7.97;;
72404;SDS011;60395;52.020;113.548;2022-09-09T14:24:31;25.02;;;9.20;;
72404;SDS011;60395;52.020;113.548;2022-09-09T14:27:34;20.08;;;7.57;;
72404;SDS011;60395;52.020;113.548;2022-09-09T14:30:38;22.42;;;7.68;;
72404;SDS011;60395;52.020;113.548;2022-09-09T14:33:42;22.10;;;9.35;;
72404;SDS011;60395;52.020;113.548;2022-09-09T14:36:45;16.30;;;7.95;;
72404;SDS011;60395;52.020;113.548;2022-09-09T14:39:49;22.13;;;9.47;;
72404;SDS011;60395;52.020;113.548;2022-09-09T14:42:53;20.77;;;8.15;;
72404;SDS011;60395;52.020;113.548;2022-09-09T14:46:06;26.65;;;9.48;;
72404;SDS011;60395;52.020;113.548;2022-09-09T14:49:13;37.33;;;10.05;;
72404;SDS011;60395;52.020;113.548;2022-09-09T14:52:17;24.77;;;9.20;;
72404;SDS011;60395;52.020;113.548;2022-09-09T14:55:20;20.60;;;9.50;;
72404;SDS011;60395;52.020;113.548;2022-09-09T14:58:23;19.67;;;8.88;;
72404;SDS011;60395;52.020;113.548;2022-09-09T15:01:32;17.80;;;9.30;;
72404;SDS011;60395;52.020;113.548;2022-09-09T15:04:36;24.02;;;9.73;;
72404;SDS011;60395;52.020;113.548;2022-09-09T15:07:39;24.83;;;8.68;;
72404;SDS011;60395;52.020;113.548;2022-09-09T15:10:42;20.92;;;8.73;;
72404;SDS011;60395;52.020;113.548;2022-09-09T15:13:47;25.23;;;8.73;;
72404;SDS011;60395;52.020;113.548;2022-09-09T15:16:54;21.52;;;9.38;;
72404;SDS011;60395;52.020;113.548;2022-09-09T15:19:57;27.55;;;10.02;;
72404;SDS011;60395;52.020;113.548;2022-09-09T15:23:00;22.08;;;9.55;;
72404;SDS011;60395;52.020;113.548;2022-09-09T15:26:03;24.58;;;10.30;;
72404;SDS011;60395;52.020;113.548;2022-09-09T15:29:07;22.97;;;9.43;;
72404;SDS011;60395;52.020;113.548;2022-09-09T15:32:10;22.17;;;9.90;;
72404;SDS011;60395;52.020;113.548;2022-09-09T15:35:13;20.38;;;9.35;;
72404;SDS011;60395;52.020;113.548;2022-09-09T15:38:19;23.13;;;10.95;;
72404;SDS011;60395;52.020;113.548;2022-09-09T15:41:22;18.23;;;9.68;;
72404;SDS011;60395;52.020;113.548;2022-09-09T15:44:26;22.10;;;9.60;;
72404;SDS011;60395;52.020;113.548;2022-09-09T15:47:28;27.85;;;10.68;;
72404;SDS011;60395;52.020;113.548;2022-09-09T15:50:31;20.27;;;10.20;;
72404;SDS011;60395;52.020;113.548;2022-09-09T15:53:35;20.92;;;11.10;;
72404;SDS011;60395;52.020;113.548;2022-09-09T15:56:38;18.27;;;10.55;;
72404;SDS011;60395;52.020;113.548;2022-09-09T15:59:40;26.35;;;10.82;;
72404;SDS011;60395;52.020;113.548;2022-09-09T16:02:43;30.92;;;11.38;;
72404;SDS011;60395;52.020;113.548;2022-09-09T16:05:50;25.95;;;10.77;;
72404;SDS011;60395;52.020;113.548;2022-09-09T16:08:55;23.48;;;10.80;;
72404;SDS011;60395;52.020;113.548;2022-09-09T16:11:59;21.85;;;10.80;;
72404;SDS011;60395;52.020;113.548;2022-09-09T16:15:03;21.63;;;10.55;;
72404;SDS011;60395;52.020;113.548;2022-09-09T16:18:06;23.17;;;11.02;;
72404;SDS011;60395;52.020;113.548;2022-09-09T16:21:11;26.73;;;12.23;;
72404;SDS011;60395;52.020;113.548;2022-09-09T16:24:19;20.15;;;10.50;;
72404;SDS011;60395;52.020;113.548;2022-09-09T16:27:23;34.42;;;11.73;;
72404;SDS011;60395;52.020;113.548;2022-09-09T16:30:26;31.83;;;12.18;;
72404;SDS011;60395;52.020;113.548;2022-09-09T16:33:29;23.17;;;12.27;;
72404;SDS011;60395;52.020;113.548;2022-09-09T16:36:33;21.13;;;12.30;;
72404;SDS011;60395;52.020;113.548;2022-09-09T16:39:37;25.38;;;12.40;;
72404;SDS011;60395;52.020;113.548;2022-09-09T16:42:40;26.40;;;12.10;;
72404;SDS011;60395;52.020;113.548;2022-09-09T16:45:44;28.52;;;13.38;;
72404;SDS011;60395;52.020;113.548;2022-09-09T16:48:49;26.08;;;14.00;;
72404;SDS011;60395;52.020;113.548;2022-09-09T16:51:53;26.33;;;13.40;;
72404;SDS011;60395;52.020;113.548;2022-09-09T16:54:56;27.30;;;14.13;;
72404;SDS011;60395;52.020;113.548;2022-09-09T16:57:59;25.90;;;14.20;;
72404;SDS011;60395;52.020;113.548;2022-09-09T17:01:02;40.38;;;21.88;;
72404;SDS011;60395;52.020;113.548;2022-09-09T17:04:07;26.00;;;14.13;;
72404;SDS011;60395;52.020;113.548;2022-09-09T17:07:15;28.83;;;13.70;;
72404;SDS011;60395;52.020;113.548;2022-09-09T17:10:20;24.70;;;13.85;;
72404;SDS011;60395;52.020;113.548;2022-09-09T17:13:23;26.88;;;14.10;;
72404;SDS011;60395;52.020;113.548;2022-09-09T17:16:28;25.23;;;13.77;;
72404;SDS011;60395;52.020;113.548;2022-09-09T17:19:33;30.35;;;12.65;;
72404;SDS011;60395;52.020;113.548;2022-09-09T17:22:36;24.27;;;13.07;;
72404;SDS011;60395;52.020;113.548;2022-09-09T17:25:39;21.38;;;11.95;;
72404;SDS011;60395;52.020;113.548;2022-09-09T17:28:43;22.55;;;12.70;;
72404;SDS011;60395;52.020;113.548;2022-09-09T17:31:47;24.63;;;12.98;;
72404;SDS011;60395;52.020;113.548;2022-09-09T17:34:50;26.35;;;12.48;;
72404;SDS011;60395;52.020;113.548;2022-09-09T17:37:55;27.13;;;12.80;;
72404;SDS011;60395;52.020;113.548;2022-09-09T17:41:15;31.92;;;13.50;;
72404;SDS011;60395;52.020;113.548;2022-09-09T17:44:20;20.77;;;13.02;;
72404;SDS011;60395;52.020;113.548;2022-09-09T17:47:23;25.00;;;12.27;;
72404;SDS011;60395;52.020;113.548;2022-09-09T17:50:26;22.95;;;12.30;;
72404;SDS011;60395;52.020;113.548;2022-09-09T17:53:29;30.58;;;13.48;;
72404;SDS011;60395;52.020;113.548;2022-09-09T17:56:33;25.27;;;13.57;;
72404;SDS011;60395;52.020;113.548;2022-09-09T17:59:37;24.17;;;13.63;;
72404;SDS011;60395;52.020;113.548;2022-09-09T18:02:40;22.42;;;12.88;;
72404;SDS011;60395;52.020;113.548;2022-09-09T18:05:43;24.13;;;12.88;;
72404;SDS011;60395;52.020;113.548;2022-09-09T18:08:50;20.85;;;12.00;;
72404;SDS011;60395;52.020;113.548;2022-09-09T18:11:55;23.27;;;13.00;;
72404;SDS011;60395;52.020;113.548;2022-09-09T18:14:59;23.80;;;12.50;;
72404;SDS011;60395;52.020;113.548;2022-09-09T18:18:05;24.65;;;13.07;;
72404;SDS011;60395;52.020;113.548;2022-09-09T18:21:08;21.05;;;12.90;;
72404;SDS011;60395;52.020;113.548;2022-09-09T18:24:12;20.80;;;12.55;;
72404;SDS011;60395;52.020;113.548;2022-09-09T18:30:19;24.30;;;12.00;;
72404;SDS011;60395;52.020;113.548;2022-09-09T18:33:22;21.05;;;11.88;;
72404;SDS011;60395;52.020;113.548;2022-09-09T18:36:27;25.10;;;11.32;;
72404;SDS011;60395;52.020;113.548;2022-09-09T18:39:35;24.10;;;11.32;;
72404;SDS011;60395;52.020;113.548;2022-09-09T18:42:38;19.80;;;11.73;;
72404;SDS011;60395;52.020;113.548;2022-09-09T18:45:41;21.90;;;11.18;;
72404;SDS011;60395;52.020;113.548;2022-09-09T18:48:45;17.42;;;10.68;;
72404;SDS011;60395;52.020;113.548;2022-09-09T18:51:51;20.05;;;10.60;;
72404;SDS011;60395;52.020;113.548;2022-09-09T18:54:54;23.67;;;10.88;;
72404;SDS011;60395;52.020;113.548;2022-09-09T18:57:57;19.23;;;10.18;;
72404;SDS011;60395;52.020;113.548;2022-09-09T19:01:01;19.08;;;10.80;;
72404;SDS011;60395;52.020;113.548;2022-09-09T19:04:06;19.80;;;11.35;;
72404;SDS011;60395;52.020;113.548;2022-09-09T19:07:10;20.58;;;12.07;;
72404;SDS011;60395;52.020;113.548;2022-09-09T19:10:13;26.52;;;12.95;;
72404;SDS011;60395;52.020;113.548;2022-09-09T19:13:16;23.48;;;13.00;;
72404;SDS011;60395;52.020;113.548;2022-09-09T19:16:20;22.92;;;13.43;;
72404;SDS011;60395;52.020;113.548;2022-09-09T19:19:29;23.88;;;13.77;;
72404;SDS011;60395;52.020;113.548;2022-09-09T19:22:34;26.15;;;13.52;;
72404;SDS011;60395;52.020;113.548;2022-09-09T19:25:37;20.75;;;11.98;;
72404;SDS011;60395;52.020;113.548;2022-09-09T19:28:41;18.58;;;12.32;;
72404;SDS011;60395;52.020;113.548;2022-09-09T19:31:48;18.20;;;11.23;;
72404;SDS011;60395;52.020;113.548;2022-09-09T19:35:12;17.88;;;11.45;;
72404;SDS011;60395;52.020;113.548;2022-09-09T19:38:15;18.88;;;11.05;;
72404;SDS011;60395;52.020;113.548;2022-09-09T19:41:20;18.08;;;11.25;;
72404;SDS011;60395;52.020;113.548;2022-09-09T19:44:25;19.38;;;11.25;;
72404;SDS011;60395;52.020;113.548;2022-09-09T19:47:28;16.13;;;11.02;;
72404;SDS011;60395;52.020;113.548;2022-09-09T19:50:34;16.17;;;10.90;;
72404;SDS011;60395;52.020;113.548;2022-09-09T19:53:40;20.63;;;11.30;;
72404;SDS011;60395;52.020;113.548;2022-09-09T19:56:45;22.13;;;10.98;;
72404;SDS011;60395;52.020;113.548;2022-09-09T19:59:48;20.73;;;11.63;;
72404;SDS011;60395;52.020;113.548;2022-09-09T20:02:51;18.92;;;11.00;;
72404;SDS011;60395;52.020;113.548;2022-09-09T20:06:15;18.63;;;11.18;;
72404;SDS011;60395;52.020;113.548;2022-09-09T20:12:22;15.90;;;10.15;;
72404;SDS011;60395;52.020;113.548;2022-09-09T20:15:25;17.23;;;10.80;;
72404;SDS011;60395;52.020;113.548;2022-09-09T20:18:29;21.60;;;12.48;;
72404;SDS011;60395;52.020;113.548;2022-09-09T20:21:35;16.55;;;10.88;;
72404;SDS011;60395;52.020;113.548;2022-09-09T20:24:39;16.50;;;11.15;;